sensor_id;sensor_type;location;lat;lon;timestamp;pressure;altitude;pressure_sealevel;temperature;humidity
80699;BME280;70062;51.658;5.658;2023-08-06T00:01:24;100256.25;;;16.62;77.11
80699;BME280;70062;51.658;5.658;2023-08-06T00:03:50;100257.65;;;16.63;77.00
80699;BME280;70062;51.658;5.658;2023-08-06T00:06:16;100260.82;;;16.65;77.02
80699;BME280;70062;51.658;5.658;2023-08-06T00:08:41;100260.15;;;16.66;76.95
80699;BME280;70062;51.658;5.658;2023-08-06T00:11:07;100262.97;;;16.68;76.82
80699;BME280;70062;51.658;5.658;2023-08-06T00:13:32;100260.72;;;16.69;76.85
80699;BME280;70062;51.658;5.658;2023-08-06T00:16:13;100261.92;;;16.69;76.75
80699;BME280;70062;51.658;5.658;2023-08-06T00:18:39;100258.96;;;16.68;76.76
80699;BME280;70062;51.658;5.658;2023-08-06T00:21:05;100254.44;;;16.66;76.83
80699;BME280;70062;51.658;5.658;2023-08-06T00:23:30;100251.45;;;16.65;76.79
80699;BME280;70062;51.658;5.658;2023-08-06T00:25:56;100250.43;;;16.65;76.76
80699;BME280;70062;51.658;5.658;2023-08-06T00:28:21;100252.18;;;16.66;76.80
80699;BME280;70062;51.658;5.658;2023-08-06T00:30:52;100247.33;;;16.66;76.96
80699;BME280;70062;51.658;5.658;2023-08-06T00:33:18;100246.48;;;16.67;77.02
80699;BME280;70062;51.658;5.658;2023-08-06T00:35:43;100242.51;;;16.67;77.07
80699;BME280;70062;51.658;5.658;2023-08-06T00:38:08;100240.94;;;16.67;77.29
80699;BME280;70062;51.658;5.658;2023-08-06T00:40:34;100237.45;;;16.66;77.17
80699;BME280;70062;51.658;5.658;2023-08-06T00:42:59;100238.83;;;16.65;77.27
80699;BME280;70062;51.658;5.658;2023-08-06T00:45:25;100238.80;;;16.65;77.03
80699;BME280;70062;51.658;5.658;2023-08-06T00:47:51;100237.80;;;16.66;76.99
80699;BME280;70062;51.658;5.658;2023-08-06T00:50:17;100236.25;;;16.67;77.13
80699;BME280;70062;51.658;5.658;2023-08-06T00:52:42;100235.23;;;16.68;77.15
80699;BME280;70062;51.658;5.658;2023-08-06T00:58:24;100235.78;;;16.70;77.04
80699;BME280;70062;51.658;5.658;2023-08-06T01:00:50;100234.36;;;16.67;77.06
80699;BME280;70062;51.658;5.658;2023-08-06T01:03:15;100233.15;;;16.68;76.93
80699;BME280;70062;51.658;5.658;2023-08-06T01:05:41;100235.41;;;16.69;76.86
80699;BME280;70062;51.658;5.658;2023-08-06T01:09:03;100233.48;;;16.67;76.81
80699;BME280;70062;51.658;5.658;2023-08-06T01:13:59;100232.59;;;16.65;76.94
80699;BME280;70062;51.658;5.658;2023-08-06T01:16:28;100233.98;;;16.66;76.92
80699;BME280;70062;51.658;5.658;2023-08-06T01:18:54;100231.33;;;16.64;76.99
80699;BME280;70062;51.658;5.658;2023-08-06T01:21:19;100234.40;;;16.61;77.10
80699;BME280;70062;51.658;5.658;2023-08-06T01:23:46;100231.26;;;16.59;77.29
80699;BME280;70062;51.658;5.658;2023-08-06T01:31:36;100227.96;;;16.59;77.17
80699;BME280;70062;51.658;5.658;2023-08-06T01:34:03;100230.39;;;16.59;77.19
80699;BME280;70062;51.658;5.658;2023-08-06T01:36:30;100230.55;;;16.58;77.10
80699;BME280;70062;51.658;5.658;2023-08-06T01:38:56;100233.30;;;16.57;77.10
80699;BME280;70062;51.658;5.658;2023-08-06T01:41:22;100233.98;;;16.56;77.25
80699;BME280;70062;51.658;5.658;2023-08-06T01:43:48;100233.95;;;16.55;77.23
80699;BME280;70062;51.658;5.658;2023-08-06T01:46:14;100229.98;;;16.55;77.11
80699;BME280;70062;51.658;5.658;2023-08-06T01:48:40;100225.29;;;16.55;77.18
80699;BME280;70062;51.658;5.658;2023-08-06T01:51:05;100225.14;;;16.56;77.22
80699;BME280;70062;51.658;5.658;2023-08-06T01:53:32;100223.08;;;16.57;77.35
80699;BME280;70062;51.658;5.658;2023-08-06T01:55:57;100221.69;;;16.56;77.34
80699;BME280;70062;51.658;5.658;2023-08-06T01:58:26;100223.93;;;16.56;77.34
80699;BME280;70062;51.658;5.658;2023-08-06T02:00:51;100224.95;;;16.54;77.15
80699;BME280;70062;51.658;5.658;2023-08-06T02:03:17;100228.02;;;16.52;77.27
80699;BME280;70062;51.658;5.658;2023-08-06T02:05:42;100231.81;;;16.50;77.40
80699;BME280;70062;51.658;5.658;2023-08-06T02:08:07;100231.83;;;16.51;77.44
80699;BME280;70062;51.658;5.658;2023-08-06T02:10:33;100229.94;;;16.52;77.32
80699;BME280;70062;51.658;5.658;2023-08-06T02:12:59;100229.81;;;16.55;77.27
80699;BME280;70062;51.658;5.658;2023-08-06T02:15:24;100226.39;;;16.58;77.33
80699;BME280;70062;51.658;5.658;2023-08-06T02:17:49;100228.17;;;16.61;77.37
80699;BME280;70062;51.658;5.658;2023-08-06T02:20:15;100228.27;;;16.66;77.45
80699;BME280;70062;51.658;5.658;2023-08-06T02:22:40;100228.64;;;16.68;77.36
80699;BME280;70062;51.658;5.658;2023-08-06T02:25:06;100226.23;;;16.69;77.30
80699;BME280;70062;51.658;5.658;2023-08-06T02:27:32;100223.81;;;16.70;77.23
80699;BME280;70062;51.658;5.658;2023-08-06T02:29:57;100224.35;;;16.71;77.17
80699;BME280;70062;51.658;5.658;2023-08-06T02:32:23;100221.80;;;16.74;77.22
80699;BME280;70062;51.658;5.658;2023-08-06T02:34:48;100221.66;;;16.77;77.17
80699;BME280;70062;51.658;5.658;2023-08-06T02:37:13;100215.27;;;16.79;77.05
80699;BME280;70062;51.658;5.658;2023-08-06T02:39:39;100214.25;;;16.80;76.98
80699;BME280;70062;51.658;5.658;2023-08-06T02:42:08;100214.42;;;16.81;76.82
80699;BME280;70062;51.658;5.658;2023-08-06T02:44:34;100210.59;;;16.79;76.92
80699;BME280;70062;51.658;5.658;2023-08-06T02:47:00;100210.23;;;16.77;76.98
80699;BME280;70062;51.658;5.658;2023-08-06T02:49:25;100211.95;;;16.77;76.85
80699;BME280;70062;51.658;5.658;2023-08-06T02:51:50;100207.62;;;16.76;76.91
80699;BME280;70062;51.658;5.658;2023-08-06T02:54:17;100204.83;;;16.75;76.84
80699;BME280;70062;51.658;5.658;2023-08-06T02:56:43;100205.30;;;16.72;76.82
80699;BME280;70062;51.658;5.658;2023-08-06T02:59:10;100203.23;;;16.73;76.87
80699;BME280;70062;51.658;5.658;2023-08-06T03:01:35;100205.67;;;16.74;76.90
80699;BME280;70062;51.658;5.658;2023-08-06T03:04:01;100206.75;;;16.77;76.95
80699;BME280;70062;51.658;5.658;2023-08-06T03:06:27;100204.02;;;16.80;76.99
80699;BME280;70062;51.658;5.658;2023-08-06T03:08:52;100204.59;;;16.83;76.98
80699;BME280;70062;51.658;5.658;2023-08-06T03:11:17;100207.05;;;16.86;77.01
80699;BME280;70062;51.658;5.658;2023-08-06T03:13:43;100206.73;;;16.88;77.05
80699;BME280;70062;51.658;5.658;2023-08-06T03:16:08;100206.38;;;16.88;76.87
80699;BME280;70062;51.658;5.658;2023-08-06T03:18:33;100205.34;;;16.87;76.92
80699;BME280;70062;51.658;5.658;2023-08-06T03:20:59;100204.66;;;16.88;76.88
80699;BME280;70062;51.658;5.658;2023-08-06T03:23:24;100200.35;;;16.90;76.87
80699;BME280;70062;51.658;5.658;2023-08-06T03:25:50;100200.38;;;16.93;76.79
80699;BME280;70062;51.658;5.658;2023-08-06T03:28:15;100201.27;;;16.95;76.70
80699;BME280;70062;51.658;5.658;2023-08-06T03:30:43;100205.61;;;16.95;76.73
80699;BME280;70062;51.658;5.658;2023-08-06T03:33:08;100207.70;;;16.95;76.68
80699;BME280;70062;51.658;5.658;2023-08-06T03:35:33;100206.81;;;16.95;76.68
80699;BME280;70062;51.658;5.658;2023-08-06T03:37:59;100204.72;;;16.93;76.72
80699;BME280;70062;51.658;5.658;2023-08-06T03:40:24;100204.86;;;16.91;76.75
80699;BME280;70062;51.658;5.658;2023-08-06T03:42:49;100203.96;;;16.89;76.71
80699;BME280;70062;51.658;5.658;2023-08-06T03:45:15;100204.30;;;16.87;76.75
80699;BME280;70062;51.658;5.658;2023-08-06T03:47:40;100202.38;;;16.87;76.79
80699;BME280;70062;51.658;5.658;2023-08-06T03:50:06;100206.04;;;16.87;76.81
80699;BME280;70062;51.658;5.658;2023-08-06T03:52:31;100202.74;;;16.88;76.88
80699;BME280;70062;51.658;5.658;2023-08-06T03:54:57;100202.40;;;16.88;76.79
80699;BME280;70062;51.658;5.658;2023-08-06T03:57:22;100203.24;;;16.86;76.87
80699;BME280;70062;51.658;5.658;2023-08-06T03:59:47;100204.25;;;16.83;76.91
80699;BME280;70062;51.658;5.658;2023-08-06T04:02:13;100203.50;;;16.80;76.89
80699;BME280;70062;51.658;5.658;2023-08-06T04:04:38;100207.45;;;16.77;76.85
80699;BME280;70062;51.658;5.658;2023-08-06T04:07:05;100202.23;;;16.76;76.90
80699;BME280;70062;51.658;5.658;2023-08-06T04:09:31;100199.95;;;16.73;76.99
80699;BME280;70062;51.658;5.658;2023-08-06T04:11:56;100199.72;;;16.70;77.04
80699;BME280;70062;51.658;5.658;2023-08-06T04:14:23;100204.56;;;16.68;77.27
80699;BME280;70062;51.658;5.658;2023-08-06T04:16:49;100204.55;;;16.68;77.35
80699;BME280;70062;51.658;5.658;2023-08-06T04:19:14;100205.45;;;16.70;77.55
80699;BME280;70062;51.658;5.658;2023-08-06T04:21:40;100207.90;;;16.72;77.57
80699;BME280;70062;51.658;5.658;2023-08-06T04:24:05;100211.55;;;16.73;77.55
80699;BME280;70062;51.658;5.658;2023-08-06T04:26:31;100214.13;;;16.71;77.54
80699;BME280;70062;51.658;5.658;2023-08-06T04:28:56;100219.16;;;16.72;77.52
80699;BME280;70062;51.658;5.658;2023-08-06T04:31:24;100223.50;;;16.72;77.55
80699;BME280;70062;51.658;5.658;2023-08-06T04:33:49;100223.52;;;16.74;77.55
80699;BME280;70062;51.658;5.658;2023-08-06T04:36:15;100222.87;;;16.77;77.58
80699;BME280;70062;51.658;5.658;2023-08-06T04:38:40;100221.66;;;16.77;77.64
80699;BME280;70062;51.658;5.658;2023-08-06T04:41:10;100220.61;;;16.76;77.59
80699;BME280;70062;51.658;5.658;2023-08-06T04:43:35;100222.67;;;16.75;77.60
80699;BME280;70062;51.658;5.658;2023-08-06T04:46:01;100220.07;;;16.74;77.76
80699;BME280;70062;51.658;5.658;2023-08-06T04:48:26;100222.71;;;16.77;77.70
80699;BME280;70062;51.658;5.658;2023-08-06T04:50:51;100221.92;;;16.84;77.73
80699;BME280;70062;51.658;5.658;2023-08-06T04:53:17;100226.01;;;16.90;77.73
80699;BME280;70062;51.658;5.658;2023-08-06T04:55:43;100227.14;;;16.97;77.62
80699;BME280;70062;51.658;5.658;2023-08-06T04:58:12;100232.08;;;17.04;77.64
80699;BME280;70062;51.658;5.658;2023-08-06T05:00:37;100231.84;;;17.12;77.50
80699;BME280;70062;51.658;5.658;2023-08-06T05:03:03;100234.88;;;17.20;77.33
80699;BME280;70062;51.658;5.658;2023-08-06T05:05:28;100233.39;;;17.25;77.21
80699;BME280;70062;51.658;5.658;2023-08-06T05:07:55;100235.02;;;17.31;77.05
80699;BME280;70062;51.658;5.658;2023-08-06T05:10:27;100234.77;;;17.38;76.83
80699;BME280;70062;51.658;5.658;2023-08-06T05:12:52;100240.61;;;17.47;76.69
80699;BME280;70062;51.658;5.658;2023-08-06T05:15:18;100242.27;;;17.55;76.47
80699;BME280;70062;51.658;5.658;2023-08-06T05:17:44;100248.63;;;17.64;76.28
80699;BME280;70062;51.658;5.658;2023-08-06T05:20:09;100251.36;;;17.76;76.17
80699;BME280;70062;51.658;5.658;2023-08-06T05:22:35;100250.60;;;17.86;75.94
80699;BME280;70062;51.658;5.658;2023-08-06T05:25:00;100257.80;;;17.95;75.62
80699;BME280;70062;51.658;5.658;2023-08-06T05:27:26;100258.07;;;18.05;75.55
80699;BME280;70062;51.658;5.658;2023-08-06T05:29:55;100257.65;;;18.16;75.07
80699;BME280;70062;51.658;5.658;2023-08-06T05:32:20;100257.20;;;18.25;74.73
80699;BME280;70062;51.658;5.658;2023-08-06T05:34:46;100261.10;;;18.34;74.38
80699;BME280;70062;51.658;5.658;2023-08-06T05:37:11;100262.02;;;18.39;73.83
80699;BME280;70062;51.658;5.658;2023-08-06T05:39:37;100268.33;;;18.47;73.38
80699;BME280;70062;51.658;5.658;2023-08-06T05:42:02;100271.14;;;18.50;72.95
80699;BME280;70062;51.658;5.658;2023-08-06T05:44:28;100274.44;;;18.50;72.73
80699;BME280;70062;51.658;5.658;2023-08-06T05:46:53;100277.36;;;18.47;72.55
80699;BME280;70062;51.658;5.658;2023-08-06T05:49:18;100276.64;;;18.43;72.31
80699;BME280;70062;51.658;5.658;2023-08-06T05:51:44;100283.22;;;18.40;72.38
80699;BME280;70062;51.658;5.658;2023-08-06T05:54:09;100289.33;;;18.42;72.48
80699;BME280;70062;51.658;5.658;2023-08-06T05:56:34;100287.26;;;18.45;72.41
80699;BME280;70062;51.658;5.658;2023-08-06T05:59:00;100288.70;;;18.50;72.56
80699;BME280;70062;51.658;5.658;2023-08-06T06:01:25;100287.67;;;18.54;72.68
80699;BME280;70062;51.658;5.658;2023-08-06T06:03:54;100291.84;;;18.53;72.20
80699;BME280;70062;51.658;5.658;2023-08-06T06:06:19;100297.17;;;18.47;72.07
80699;BME280;70062;51.658;5.658;2023-08-06T06:08:45;100303.02;;;18.40;72.26
80699;BME280;70062;51.658;5.658;2023-08-06T06:11:10;100305.98;;;18.39;72.25
80699;BME280;70062;51.658;5.658;2023-08-06T06:13:36;100309.80;;;18.38;72.44
80699;BME280;70062;51.658;5.658;2023-08-06T06:16:03;100313.23;;;18.35;72.23
80699;BME280;70062;51.658;5.658;2023-08-06T06:18:28;100318.28;;;18.35;72.04
80699;BME280;70062;51.658;5.658;2023-08-06T06:20:53;100318.45;;;18.34;72.11
80699;BME280;70062;51.658;5.658;2023-08-06T06:23:19;100320.19;;;18.35;72.30
80699;BME280;70062;51.658;5.658;2023-08-06T06:25:48;100323.34;;;18.37;72.18
80699;BME280;70062;51.658;5.658;2023-08-06T06:28:14;100325.09;;;18.39;71.80
80699;BME280;70062;51.658;5.658;2023-08-06T06:32:25;100327.77;;;18.47;71.82
80699;BME280;70062;51.658;5.658;2023-08-06T06:34:50;100334.71;;;18.47;71.92
80699;BME280;70062;51.658;5.658;2023-08-06T06:37:17;100334.40;;;18.49;71.93
80699;BME280;70062;51.658;5.658;2023-08-06T06:39:42;100340.48;;;18.50;71.99
80699;BME280;70062;51.658;5.658;2023-08-06T06:42:07;100340.66;;;18.51;71.54
80699;BME280;70062;51.658;5.658;2023-08-06T06:44:33;100342.91;;;18.50;71.41
80699;BME280;70062;51.658;5.658;2023-08-06T06:46:58;100344.30;;;18.49;71.39
80699;BME280;70062;51.658;5.658;2023-08-06T06:49:23;100346.19;;;18.47;71.28
80699;BME280;70062;51.658;5.658;2023-08-06T06:52:30;100346.55;;;18.49;71.48
80699;BME280;70062;51.658;5.658;2023-08-06T06:54:55;100348.11;;;18.47;71.68
80699;BME280;70062;51.658;5.658;2023-08-06T06:57:21;100353.87;;;18.52;71.80
80699;BME280;70062;51.658;5.658;2023-08-06T06:59:46;100354.80;;;18.58;71.54
80699;BME280;70062;51.658;5.658;2023-08-06T07:02:11;100355.72;;;18.61;71.52
80699;BME280;70062;51.658;5.658;2023-08-06T07:04:37;100359.27;;;18.67;71.56
80699;BME280;70062;51.658;5.658;2023-08-06T07:07:02;100360.50;;;18.70;71.24
80699;BME280;70062;51.658;5.658;2023-08-06T07:09:28;100361.19;;;18.69;71.02
80699;BME280;70062;51.658;5.658;2023-08-06T07:11:53;100363.24;;;18.66;70.97
80699;BME280;70062;51.658;5.658;2023-08-06T07:14:19;100364.27;;;18.63;70.89
80699;BME280;70062;51.658;5.658;2023-08-06T07:16:44;100365.43;;;18.60;70.87
80699;BME280;70062;51.658;5.658;2023-08-06T07:19:09;100365.39;;;18.57;71.16
80699;BME280;70062;51.658;5.658;2023-08-06T07:21:35;100365.94;;;18.59;71.31
80699;BME280;70062;51.658;5.658;2023-08-06T07:24:00;100369.65;;;18.64;71.41
80699;BME280;70062;51.658;5.658;2023-08-06T07:26:26;100371.63;;;18.71;71.14
80699;BME280;70062;51.658;5.658;2023-08-06T07:28:51;100373.39;;;18.74;71.06
80699;BME280;70062;51.658;5.658;2023-08-06T07:31:17;100378.34;;;18.83;71.12
80699;BME280;70062;51.658;5.658;2023-08-06T07:33:42;100381.71;;;18.92;70.98
80699;BME280;70062;51.658;5.658;2023-08-06T07:36:12;100381.79;;;19.02;70.83
80699;BME280;70062;51.658;5.658;2023-08-06T07:38:38;100378.10;;;19.19;70.37
80699;BME280;70062;51.658;5.658;2023-08-06T07:41:04;100379.42;;;19.35;69.70
80699;BME280;70062;51.658;5.658;2023-08-06T07:43:30;100379.11;;;19.43;69.32
80699;BME280;70062;51.658;5.658;2023-08-06T07:45:59;100383.63;;;19.39;68.84
80699;BME280;70062;51.658;5.658;2023-08-06T07:48:27;100385.18;;;19.38;69.00
80699;BME280;70062;51.658;5.658;2023-08-06T07:50:57;100388.92;;;19.23;68.94
80699;BME280;70062;51.658;5.658;2023-08-06T07:53:23;100390.42;;;18.96;70.05
80699;BME280;70062;51.658;5.658;2023-08-06T07:55:53;100395.84;;;18.59;71.41
80699;BME280;70062;51.658;5.658;2023-08-06T07:58:20;100394.79;;;18.24;72.65
80699;BME280;70062;51.658;5.658;2023-08-06T08:07:09;100396.66;;;17.89;74.21
80699;BME280;70062;51.658;5.658;2023-08-06T08:09:35;100395.95;;;17.88;74.29
80699;BME280;70062;51.658;5.658;2023-08-06T08:12:01;100400.00;;;17.93;74.48
80699;BME280;70062;51.658;5.658;2023-08-06T08:14:28;100402.66;;;17.98;74.60
80699;BME280;70062;51.658;5.658;2023-08-06T08:17:09;100403.14;;;17.93;74.92
80699;BME280;70062;51.658;5.658;2023-08-06T08:19:36;100411.14;;;17.81;75.23
80699;BME280;70062;51.658;5.658;2023-08-06T08:22:13;100419.64;;;17.68;74.73
80699;BME280;70062;51.658;5.658;2023-08-06T08:24:38;100423.33;;;17.36;74.68
80699;BME280;70062;51.658;5.658;2023-08-06T08:27:04;100428.20;;;17.04;75.59
80699;BME280;70062;51.658;5.658;2023-08-06T08:34:18;100447.18;;;16.33;78.03
80699;BME280;70062;51.658;5.658;2023-08-06T08:36:43;100454.89;;;15.94;79.29
80699;BME280;70062;51.658;5.658;2023-08-06T08:39:12;100462.56;;;15.58;81.51
80699;BME280;70062;51.658;5.658;2023-08-06T08:41:37;100469.98;;;15.29;82.60
80699;BME280;70062;51.658;5.658;2023-08-06T08:44:08;100477.01;;;15.05;82.88
80699;BME280;70062;51.658;5.658;2023-08-06T08:46:40;100473.33;;;14.89;83.36
80699;BME280;70062;51.658;5.658;2023-08-06T08:49:06;100474.96;;;14.79;84.13
80699;BME280;70062;51.658;5.658;2023-08-06T08:57:39;100483.78;;;14.60;84.85
80699;BME280;70062;51.658;5.658;2023-08-06T09:00:05;100487.13;;;14.56;85.01
80699;BME280;70062;51.658;5.658;2023-08-06T09:02:33;100491.23;;;14.54;85.42
80699;BME280;70062;51.658;5.658;2023-08-06T09:11:11;100494.47;;;14.53;85.78
80699;BME280;70062;51.658;5.658;2023-08-06T09:13:37;100498.42;;;14.58;85.93
80699;BME280;70062;51.658;5.658;2023-08-06T09:16:04;100500.98;;;14.64;86.12
80699;BME280;70062;51.658;5.658;2023-08-06T09:18:30;100500.43;;;14.68;85.82
80699;BME280;70062;51.658;5.658;2023-08-06T09:20:57;100499.02;;;14.67;86.06
80699;BME280;70062;51.658;5.658;2023-08-06T09:23:30;100501.91;;;14.66;86.39
80699;BME280;70062;51.658;5.658;2023-08-06T09:25:57;100509.88;;;14.66;86.42
80699;BME280;70062;51.658;5.658;2023-08-06T09:28:23;100513.72;;;14.68;86.69
80699;BME280;70062;51.658;5.658;2023-08-06T09:30:50;100515.07;;;14.73;86.59
80699;BME280;70062;51.658;5.658;2023-08-06T09:33:19;100520.16;;;14.83;86.33
80699;BME280;70062;51.658;5.658;2023-08-06T09:35:45;100527.38;;;14.88;86.42
80699;BME280;70062;51.658;5.658;2023-08-06T09:44:21;100533.19;;;15.05;86.20
80699;BME280;70062;51.658;5.658;2023-08-06T09:46:49;100528.59;;;15.15;85.82
80699;BME280;70062;51.658;5.658;2023-08-06T09:49:17;100534.36;;;15.31;85.61
80699;BME280;70062;51.658;5.658;2023-08-06T09:57:53;100538.41;;;15.61;85.06
80699;BME280;70062;51.658;5.658;2023-08-06T10:00:20;100543.27;;;15.68;84.78
80699;BME280;70062;51.658;5.658;2023-08-06T10:02:48;100543.52;;;15.71;84.83
80699;BME280;70062;51.658;5.658;2023-08-06T10:05:15;100544.16;;;15.76;84.55
80699;BME280;70062;51.658;5.658;2023-08-06T10:07:43;100548.06;;;15.80;84.71
80699;BME280;70062;51.658;5.658;2023-08-06T10:10:09;100543.98;;;15.76;84.57
80699;BME280;70062;51.658;5.658;2023-08-06T10:12:47;100542.77;;;15.69;84.73
80699;BME280;70062;51.658;5.658;2023-08-06T10:15:16;100545.79;;;15.64;84.89
80699;BME280;70062;51.658;5.658;2023-08-06T10:17:43;100550.35;;;15.61;84.90
80699;BME280;70062;51.658;5.658;2023-08-06T10:20:11;100545.08;;;15.63;85.03
80699;BME280;70062;51.658;5.658;2023-08-06T10:22:42;100552.88;;;15.71;85.12
80699;BME280;70062;51.658;5.658;2023-08-06T10:25:08;100550.41;;;15.85;84.69
80699;BME280;70062;51.658;5.658;2023-08-06T10:27:41;100546.88;;;16.05;84.52
80699;BME280;70062;51.658;5.658;2023-08-06T10:30:22;100551.23;;;16.30;84.34
80699;BME280;70062;51.658;5.658;2023-08-06T10:33:03;100545.45;;;16.44;83.59
80699;BME280;70062;51.658;5.658;2023-08-06T10:38:10;100543.89;;;16.61;83.16
80699;BME280;70062;51.658;5.658;2023-08-06T10:40:39;100552.10;;;16.72;82.80
80699;BME280;70062;51.658;5.658;2023-08-06T10:43:05;100550.80;;;16.85;82.64
80699;BME280;70062;51.658;5.658;2023-08-06T10:45:36;100559.80;;;16.94;82.25
80699;BME280;70062;51.658;5.658;2023-08-06T10:48:02;100559.32;;;16.86;81.41
80699;BME280;70062;51.658;5.658;2023-08-06T10:50:27;100559.55;;;16.80;81.72
80699;BME280;70062;51.658;5.658;2023-08-06T10:52:53;100560.95;;;16.81;81.70
80699;BME280;70062;51.658;5.658;2023-08-06T10:55:28;100560.61;;;16.82;81.81
80699;BME280;70062;51.658;5.658;2023-08-06T10:57:55;100562.05;;;16.84;82.00
80699;BME280;70062;51.658;5.658;2023-08-06T11:00:24;100566.06;;;16.86;81.57
80699;BME280;70062;51.658;5.658;2023-08-06T11:02:52;100567.70;;;16.89;81.39
80699;BME280;70062;51.658;5.658;2023-08-06T11:05:18;100572.73;;;16.99;81.79
80699;BME280;70062;51.658;5.658;2023-08-06T11:07:44;100571.09;;;17.14;81.55
80699;BME280;70062;51.658;5.658;2023-08-06T11:10:11;100578.27;;;17.27;81.26
80699;BME280;70062;51.658;5.658;2023-08-06T11:12:37;100578.55;;;17.33;80.33
80699;BME280;70062;51.658;5.658;2023-08-06T11:15:06;100582.09;;;17.36;79.73
80699;BME280;70062;51.658;5.658;2023-08-06T11:17:33;100583.71;;;17.31;79.74
80699;BME280;70062;51.658;5.658;2023-08-06T11:20:03;100589.41;;;17.29;79.73
80699;BME280;70062;51.658;5.658;2023-08-06T11:22:31;100591.11;;;17.27;79.47
80699;BME280;70062;51.658;5.658;2023-08-06T11:24:57;100588.23;;;17.22;79.88
80699;BME280;70062;51.658;5.658;2023-08-06T11:27:23;100592.52;;;17.19;80.12
80699;BME280;70062;51.658;5.658;2023-08-06T11:29:48;100595.14;;;17.20;80.01
80699;BME280;70062;51.658;5.658;2023-08-06T11:32:14;100591.39;;;17.15;80.10
80699;BME280;70062;51.658;5.658;2023-08-06T11:34:39;100595.83;;;17.10;80.09
80699;BME280;70062;51.658;5.658;2023-08-06T11:37:06;100596.74;;;17.13;80.77
80699;BME280;70062;51.658;5.658;2023-08-06T11:39:33;100603.55;;;17.16;80.64
80699;BME280;70062;51.658;5.658;2023-08-06T11:41:59;100603.23;;;17.07;80.21
80699;BME280;70062;51.658;5.658;2023-08-06T11:44:30;100608.26;;;16.98;80.24
80699;BME280;70062;51.658;5.658;2023-08-06T11:46:57;100609.79;;;16.96;80.50
80699;BME280;70062;51.658;5.658;2023-08-06T11:52:10;100611.25;;;16.91;80.04
80699;BME280;70062;51.658;5.658;2023-08-06T11:54:37;100618.48;;;16.88;80.03
80699;BME280;70062;51.658;5.658;2023-08-06T11:57:05;100623.30;;;16.87;80.23
80699;BME280;70062;51.658;5.658;2023-08-06T11:59:30;100626.27;;;16.87;79.79
80699;BME280;70062;51.658;5.658;2023-08-06T12:01:56;100628.91;;;16.81;79.48
80699;BME280;70062;51.658;5.658;2023-08-06T12:04:21;100632.19;;;16.72;79.18
80699;BME280;70062;51.658;5.658;2023-08-06T12:06:46;100632.89;;;16.64;79.87
80699;BME280;70062;51.658;5.658;2023-08-06T12:09:12;100633.50;;;16.62;80.06
80699;BME280;70062;51.658;5.658;2023-08-06T12:11:37;100638.20;;;16.70;80.37
80699;BME280;70062;51.658;5.658;2023-08-06T12:14:02;100640.05;;;16.75;80.06
80699;BME280;70062;51.658;5.658;2023-08-06T12:16:28;100638.70;;;16.77;80.37
80699;BME280;70062;51.658;5.658;2023-08-06T12:18:53;100639.51;;;16.83;80.53
80699;BME280;70062;51.658;5.658;2023-08-06T12:21:18;100650.65;;;16.85;79.88
80699;BME280;70062;51.658;5.658;2023-08-06T12:23:44;100653.50;;;16.80;79.55
80699;BME280;70062;51.658;5.658;2023-08-06T12:26:09;100656.11;;;16.72;80.01
80699;BME280;70062;51.658;5.658;2023-08-06T12:28:35;100656.57;;;16.70;80.32
80699;BME280;70062;51.658;5.658;2023-08-06T12:31:00;100662.58;;;16.67;79.90
80699;BME280;70062;51.658;5.658;2023-08-06T12:33:29;100664.91;;;16.64;79.96
80699;BME280;70062;51.658;5.658;2023-08-06T12:35:54;100663.16;;;16.63;80.44
80699;BME280;70062;51.658;5.658;2023-08-06T12:38:20;100671.23;;;16.60;79.93
80699;BME280;70062;51.658;5.658;2023-08-06T12:40:45;100669.52;;;16.60;80.46
80699;BME280;70062;51.658;5.658;2023-08-06T12:43:11;100672.11;;;16.67;80.38
80699;BME280;70062;51.658;5.658;2023-08-06T12:45:36;100675.27;;;16.77;80.10
80699;BME280;70062;51.658;5.658;2023-08-06T12:48:02;100674.30;;;16.88;80.19
80699;BME280;70062;51.658;5.658;2023-08-06T12:50:28;100675.67;;;17.05;79.67
80699;BME280;70062;51.658;5.658;2023-08-06T12:52:53;100679.39;;;17.17;79.58
80699;BME280;70062;51.658;5.658;2023-08-06T12:55:19;100675.52;;;17.32;78.65
80699;BME280;70062;51.658;5.658;2023-08-06T12:57:44;100675.74;;;17.43;78.59
80699;BME280;70062;51.658;5.658;2023-08-06T13:00:10;100684.92;;;17.61;79.20
80699;BME280;70062;51.658;5.658;2023-08-06T13:02:35;100683.27;;;17.84;78.88
80699;BME280;70062;51.658;5.658;2023-08-06T13:05:00;100686.02;;;18.04;78.02
80699;BME280;70062;51.658;5.658;2023-08-06T13:07:30;100691.00;;;18.22;77.00
80699;BME280;70062;51.658;5.658;2023-08-06T13:09:55;100688.20;;;18.32;76.64
80699;BME280;70062;51.658;5.658;2023-08-06T13:12:21;100690.95;;;18.42;76.80
80699;BME280;70062;51.658;5.658;2023-08-06T13:14:48;100692.70;;;18.55;76.60
80699;BME280;70062;51.658;5.658;2023-08-06T13:17:13;100695.20;;;18.70;76.63
80699;BME280;70062;51.658;5.658;2023-08-06T13:19:38;100701.69;;;18.74;75.22
80699;BME280;70062;51.658;5.658;2023-08-06T13:22:04;100696.59;;;18.59;75.02
80699;BME280;70062;51.658;5.658;2023-08-06T13:24:32;100700.70;;;18.55;75.47
80699;BME280;70062;51.658;5.658;2023-08-06T13:26:57;100703.13;;;18.55;76.32
80699;BME280;70062;51.658;5.658;2023-08-06T13:29:25;100703.52;;;18.58;76.36
80699;BME280;70062;51.658;5.658;2023-08-06T13:31:50;100705.91;;;18.66;76.60
80699;BME280;70062;51.658;5.658;2023-08-06T13:34:15;100710.56;;;18.63;75.10
80699;BME280;70062;51.658;5.658;2023-08-06T13:36:42;100713.08;;;18.46;74.51
80699;BME280;70062;51.658;5.658;2023-08-06T13:39:07;100711.03;;;18.25;74.87
80699;BME280;70062;51.658;5.658;2023-08-06T13:41:33;100711.12;;;18.09;75.52